Terminal Aerodrome Forecast
Issued by NWS Amarillo, TX

Home | Current Version | Previous Version | Text Only | Print | Product List | Glossary On
Versions: 1 2 3 4 5 6 7 8 9 10 11 12 13 14 15 16 17 18 19 20 21
000
FTUS44 KAMA 241120
TAFDHT
TAF
KDHT 241120Z 2412/2512 19015KT P6SM SCT300
     FM241500 23023G33KT P6SM BKN300
     FM250100 22016KT P6SM SCT150 BKN300
     FM250500 27015KT P6SM SCT300=

USA.gov is the U.S. government's official web portal to all federal, state and local government web resources and services.